KMNM

Menominee-Marinette Twin County Airport

Menominee, Michigan, USA
METAR KMNM 221456Z AUTO VRB03KT 10SM CLR 05/M01 A3000 RMK AO2 SLP179 6//// T00501006 58001 PNO $
Observed Flight Rules
Oct-22 @ 14:56 UTC (11 minutes ago) Visual Flight Rules
Wind Visibility Clouds
Variable at 3 knots 10 miles
  • Clear skies
Temperatures Readings
Current 5°C / 41°F
Dewpoint -1°C / 30°F
Humidity 66%
Altimeter 30" Hg
Pressure 1017.9 hPa
Elevation 191
METAR KMNM 221456Z AUTO VRB03KT 10SM CLR 05/M01 A3000 RMK AO2 SLP179 6//// T00501006 58001 PNO $
Observed Flight Rules
Oct-22 @ 14:56 UTC
(11 minutes ago)
VFR
Wind Visibility
Variable at 3 knots 10 miles
Clouds
  • Clear skies
Temperature Dewpoint
5°C / 41°F -1°C / 30°F
Humidity Altimeter Pressure
66% 30" Hg 1017.9 hPa